createdAt,value
2022-12-26T00:00:22.329Z,8.10
2022-12-26T00:02:49.024Z,8.09
2022-12-26T00:05:15.751Z,8.06
2022-12-26T00:07:42.424Z,8.03
2022-12-26T00:10:09.206Z,8.02
2022-12-26T00:12:35.922Z,8.03
2022-12-26T00:15:02.535Z,7.99
2022-12-26T00:17:29.090Z,7.98
2022-12-26T00:19:55.645Z,7.97
2022-12-26T00:22:22.220Z,7.94
2022-12-26T00:24:48.805Z,7.91
2022-12-26T00:27:15.368Z,7.89
2022-12-26T00:29:41.991Z,7.84
2022-12-26T00:32:08.530Z,7.78
2022-12-26T00:34:35.139Z,7.73
2022-12-26T00:37:01.705Z,7.69
2022-12-26T00:39:28.252Z,7.64
2022-12-26T00:41:54.784Z,7.58
2022-12-26T00:44:22.395Z,7.57
2022-12-26T00:46:48.961Z,7.51
2022-12-26T00:49:15.580Z,7.47
2022-12-26T00:51:42.125Z,7.40
2022-12-26T00:54:08.665Z,7.34
2022-12-26T00:56:35.189Z,7.31
2022-12-26T00:59:01.767Z,7.25
2022-12-26T01:01:30.960Z,7.22
2022-12-26T01:03:58.719Z,7.19
2022-12-26T01:06:25.292Z,7.18
2022-12-26T01:08:54.003Z,7.11
2022-12-26T01:11:40.260Z,7.06
2022-12-26T01:14:10.447Z,7.02
2022-12-26T01:16:38.012Z,6.97
2022-12-26T01:19:05.691Z,6.94
2022-12-26T01:21:32.508Z,6.90
2022-12-26T01:23:59.748Z,6.82
2022-12-26T01:26:26.300Z,6.79
2022-12-26T01:28:53.488Z,6.77
2022-12-26T01:31:21.220Z,6.75
2022-12-26T01:33:48.614Z,6.73
2022-12-26T01:36:16.609Z,6.72
2022-12-26T01:38:43.598Z,6.71
2022-12-26T01:41:17.349Z,6.68
2022-12-26T01:43:50.624Z,6.60
2022-12-26T01:46:20.727Z,6.56
2022-12-26T01:48:47.653Z,6.54
2022-12-26T01:51:15.660Z,6.51
2022-12-26T01:53:52.376Z,6.48
2022-12-26T01:56:35.248Z,6.42
2022-12-26T01:59:09.545Z,6.37
2022-12-26T02:01:39.678Z,6.30
2022-12-26T02:04:31.011Z,6.26
2022-12-26T02:06:57.949Z,6.22
2022-12-26T02:09:24.692Z,6.17
2022-12-26T02:12:36.676Z,6.17
2022-12-26T02:14:48.038Z,6.12
2022-12-26T02:17:14.645Z,6.07
2022-12-26T02:20:27.291Z,6.01
2022-12-26T02:23:27.459Z,5.99
2022-12-26T02:25:53.959Z,5.96
2022-12-26T02:28:51.182Z,5.94
2022-12-26T02:31:37.994Z,5.88
2022-12-26T02:34:16.668Z,5.87
2022-12-26T02:36:51.198Z,5.87
2022-12-26T02:39:46.434Z,5.83
2022-12-26T02:42:19.399Z,5.77
2022-12-26T02:45:04.567Z,5.74
2022-12-26T02:47:41.165Z,5.72
2022-12-26T02:51:00.449Z,5.62
2022-12-26T02:54:20.494Z,5.50
2022-12-26T02:57:10.779Z,5.45
2022-12-26T03:00:26.674Z,5.28
2022-12-26T03:03:13.968Z,5.12
2022-12-26T03:06:33.943Z,5.02
2022-12-26T03:09:23.207Z,4.95
2022-12-26T03:12:13.608Z,4.94
2022-12-26T03:14:46.080Z,4.84
2022-12-26T03:17:21.674Z,4.79
2022-12-26T03:19:59.640Z,4.77
2022-12-26T03:22:49.047Z,4.75
2022-12-26T03:25:37.106Z,4.70
2022-12-26T03:28:03.986Z,4.66
2022-12-26T03:30:49.499Z,4.64
2022-12-26T03:33:43.531Z,4.59
2022-12-26T03:36:20.787Z,4.52
2022-12-26T03:38:57.848Z,4.32
2022-12-26T03:41:55.151Z,4.20
2022-12-26T03:45:05.293Z,4.13
2022-12-26T03:48:16.021Z,4.14
2022-12-26T03:51:13.883Z,4.14
2022-12-26T03:54:07.902Z,4.14
2022-12-26T03:57:01.402Z,4.15
2022-12-26T03:59:58.449Z,4.03
2022-12-26T04:02:53.065Z,3.96
2022-12-26T04:05:39.411Z,3.90
2022-12-26T04:08:35.391Z,3.87
2022-12-26T04:11:21.622Z,3.78
2022-12-26T04:14:13.600Z,3.75
2022-12-26T04:17:19.371Z,3.76
2022-12-26T04:19:48.967Z,3.75
2022-12-26T04:22:47.433Z,3.72
2022-12-26T04:25:50.155Z,3.75
2022-12-26T04:28:38.394Z,3.76
2022-12-26T04:31:40.274Z,3.66
2022-12-26T04:34:31.630Z,3.63
2022-12-26T04:37:22.256Z,3.60
2022-12-26T04:40:13.347Z,3.60
2022-12-26T04:43:01.832Z,3.71
2022-12-26T04:45:49.099Z,3.68
2022-12-26T04:48:34.591Z,3.66
2022-12-26T04:51:01.186Z,3.72
2022-12-26T04:53:27.763Z,3.73
2022-12-26T04:55:54.429Z,3.70
2022-12-26T04:58:24.248Z,3.66
2022-12-26T05:00:51.160Z,3.66
2022-12-26T05:03:36.622Z,3.66
2022-12-26T05:06:21.715Z,3.63
2022-12-26T05:09:06.559Z,3.60
2022-12-26T05:11:35.264Z,3.58
2022-12-26T05:14:01.994Z,3.60
2022-12-26T05:16:47.264Z,3.62
2022-12-26T05:19:37.307Z,3.64
2022-12-26T05:22:23.583Z,3.66
2022-12-26T05:25:09.175Z,3.67
2022-12-26T05:27:56.906Z,3.63
2022-12-26T05:30:23.789Z,3.53
2022-12-26T05:33:08.563Z,3.51
2022-12-26T05:35:36.206Z,3.50
2022-12-26T05:38:03.778Z,3.51
2022-12-26T05:40:31.123Z,3.47
2022-12-26T05:42:57.746Z,3.49
2022-12-26T05:45:24.296Z,3.47
2022-12-26T05:47:52.205Z,3.48
2022-12-26T05:50:19.044Z,3.45
2022-12-26T05:52:45.648Z,3.44
2022-12-26T05:55:12.193Z,3.43
2022-12-26T05:57:38.784Z,3.40
2022-12-26T06:00:06.001Z,3.41
2022-12-26T06:02:32.703Z,3.41
2022-12-26T06:04:59.320Z,3.37
2022-12-26T06:07:25.900Z,3.30
2022-12-26T06:09:52.498Z,3.25
2022-12-26T06:12:19.036Z,3.21
2022-12-26T06:14:45.674Z,3.13
2022-12-26T06:17:12.235Z,3.13
2022-12-26T06:19:44.676Z,3.07
2022-12-26T06:22:13.171Z,3.02
2022-12-26T06:24:39.874Z,3.00
2022-12-26T06:27:06.407Z,2.93
2022-12-26T06:29:32.980Z,2.90
2022-12-26T06:31:59.659Z,2.89
2022-12-26T06:34:27.781Z,2.86
2022-12-26T06:36:57.631Z,2.84
2022-12-26T06:39:24.804Z,2.78
2022-12-26T06:41:51.466Z,2.78
2022-12-26T06:44:19.713Z,2.75
2022-12-26T06:46:46.338Z,2.74
2022-12-26T06:49:13.206Z,2.67
2022-12-26T06:51:39.814Z,2.64
2022-12-26T06:54:07.043Z,2.61
2022-12-26T06:56:34.322Z,2.59
2022-12-26T06:59:05.874Z,2.59
2022-12-26T07:01:35.110Z,2.60
2022-12-26T07:04:04.632Z,2.59
2022-12-26T07:06:32.683Z,2.66
2022-12-26T07:09:13.111Z,2.73
2022-12-26T07:11:41.471Z,2.81
2022-12-26T07:14:08.807Z,2.88
2022-12-26T07:16:37.047Z,2.98
2022-12-26T07:19:04.662Z,3.05
2022-12-26T07:21:37.920Z,3.13
2022-12-26T07:24:08.922Z,3.17
2022-12-26T07:26:35.636Z,3.13
2022-12-26T07:29:02.258Z,3.14
2022-12-26T07:31:29.705Z,3.18
2022-12-26T07:33:56.983Z,3.24
2022-12-26T07:36:25.257Z,3.33
2022-12-26T07:38:52.172Z,3.40
2022-12-26T07:41:38.086Z,3.49
2022-12-26T07:44:06.122Z,3.57
2022-12-26T07:46:33.095Z,3.66
2022-12-26T07:48:59.951Z,3.76
2022-12-26T07:51:27.115Z,3.87
2022-12-26T07:53:53.731Z,3.97
2022-12-26T07:56:20.309Z,4.05
2022-12-26T07:58:50.445Z,4.15
2022-12-26T08:01:17.193Z,4.25
2022-12-26T08:03:44.079Z,4.31
2022-12-26T08:06:11.726Z,4.36
2022-12-26T08:08:38.690Z,4.42
2022-12-26T08:11:07.652Z,4.46
2022-12-26T08:13:35.175Z,4.55
2022-12-26T08:16:10.548Z,4.63
2022-12-26T08:18:37.203Z,4.75
2022-12-26T08:21:03.892Z,4.87
2022-12-26T08:23:30.763Z,4.97
2022-12-26T08:25:57.356Z,5.11
2022-12-26T08:28:24.096Z,5.20
2022-12-26T08:30:50.740Z,5.31
2022-12-26T08:33:17.660Z,5.46
2022-12-26T08:35:44.970Z,5.62
2022-12-26T08:38:11.602Z,5.78
2022-12-26T08:40:45.246Z,5.93
2022-12-26T08:43:31.077Z,6.05
2022-12-26T08:46:01.209Z,6.17
2022-12-26T08:48:28.206Z,6.29
2022-12-26T08:51:02.525Z,6.41
2022-12-26T08:53:32.737Z,6.54
2022-12-26T08:56:00.043Z,6.67
2022-12-26T08:58:28.385Z,6.83
2022-12-26T09:00:55.739Z,7.05
2022-12-26T09:03:23.143Z,7.21
2022-12-26T09:05:49.794Z,7.33
2022-12-26T09:08:16.534Z,7.42
2022-12-26T09:10:43.122Z,7.47
2022-12-26T09:13:09.841Z,7.55
2022-12-26T09:15:36.532Z,7.60
2022-12-26T09:18:03.130Z,7.65
2022-12-26T09:20:29.712Z,7.64
2022-12-26T09:22:56.351Z,7.73
2022-12-26T09:25:26.118Z,7.75
2022-12-26T09:27:58.759Z,7.84
2022-12-26T09:30:26.149Z,7.92
2022-12-26T09:32:53.268Z,7.99
2022-12-26T09:35:19.978Z,8.04
2022-12-26T09:37:46.648Z,8.12
2022-12-26T09:40:23.850Z,8.25
2022-12-26T09:43:10.693Z,8.42
2022-12-26T09:45:47.844Z,8.78
2022-12-26T09:48:21.780Z,9.25
2022-12-26T09:50:51.910Z,9.73
2022-12-26T09:53:23.812Z,10.17
2022-12-26T09:55:58.837Z,10.67
2022-12-26T09:58:29.608Z,11.12
2022-12-26T10:01:01.851Z,11.54
2022-12-26T10:03:28.934Z,11.98
2022-12-26T10:06:08.296Z,12.31
2022-12-26T10:08:45.925Z,12.74
2022-12-26T10:11:56.602Z,13.22
2022-12-26T10:14:29.125Z,13.75
2022-12-26T10:17:28.054Z,14.04
2022-12-26T10:20:13.241Z,14.29
2022-12-26T10:22:58.181Z,14.53
2022-12-26T10:25:43.567Z,14.84
2022-12-26T10:28:28.434Z,15.12
2022-12-26T10:30:55.933Z,15.15
2022-12-26T10:33:41.567Z,15.26
2022-12-26T10:36:20.733Z,15.42
2022-12-26T10:38:49.784Z,15.57
2022-12-26T10:41:41.935Z,15.90
2022-12-26T10:44:13.025Z,16.10
2022-12-26T10:46:52.130Z,16.20
2022-12-26T10:49:22.172Z,16.21
2022-12-26T10:51:50.695Z,16.19
2022-12-26T10:54:18.610Z,15.96
2022-12-26T10:56:48.163Z,15.80
2022-12-26T10:59:21.176Z,15.49
2022-12-26T11:01:48.761Z,15.50
2022-12-26T11:05:01.920Z,15.41
2022-12-26T11:07:12.865Z,15.27
2022-12-26T11:09:42.765Z,15.31
2022-12-26T11:12:22.258Z,15.27
2022-12-26T11:14:49.202Z,15.43
2022-12-26T11:17:33.589Z,15.60
2022-12-26T11:20:12.358Z,15.90
2022-12-26T11:22:38.936Z,16.03
2022-12-26T11:25:13.743Z,16.20
2022-12-26T11:27:45.965Z,16.46
2022-12-26T11:30:29.738Z,16.60
2022-12-26T11:33:11.714Z,16.85
2022-12-26T11:35:57.013Z,17.11
2022-12-26T11:38:42.530Z,17.27
2022-12-26T11:41:39.662Z,17.36
2022-12-26T11:44:18.322Z,17.36
2022-12-26T11:46:49.882Z,17.09
2022-12-26T11:49:49.635Z,17.23
2022-12-26T11:52:51.993Z,17.63
2022-12-26T11:55:24.861Z,17.95
2022-12-26T11:58:06.842Z,18.27
2022-12-26T12:00:41.210Z,18.41
2022-12-26T12:03:16.944Z,18.10
2022-12-26T12:06:01.998Z,18.06
2022-12-26T12:08:44.528Z,17.94
2022-12-26T12:11:26.369Z,17.87
2022-12-26T12:14:13.080Z,17.41
2022-12-26T12:17:01.541Z,16.96
2022-12-26T12:19:55.432Z,16.74
2022-12-26T12:22:46.252Z,16.47
2022-12-26T12:25:24.945Z,16.31
2022-12-26T12:28:27.120Z,16.38
2022-12-26T12:31:11.727Z,16.55
2022-12-26T12:33:50.527Z,16.58
2022-12-26T12:36:24.429Z,16.59
2022-12-26T12:39:17.422Z,16.38
2022-12-26T12:42:10.155Z,16.42
2022-12-26T12:45:05.648Z,16.62
2022-12-26T12:47:34.950Z,16.59
2022-12-26T12:50:29.906Z,16.51
2022-12-26T12:53:15.011Z,16.48
2022-12-26T12:56:06.484Z,16.27
2022-12-26T12:58:51.725Z,16.26
2022-12-26T13:01:23.104Z,16.19
2022-12-26T13:03:57.917Z,16.28
2022-12-26T13:06:30.173Z,16.10
2022-12-26T13:09:17.026Z,16.20
2022-12-26T13:11:53.195Z,16.03
2022-12-26T13:14:33.620Z,15.84
2022-12-26T13:17:11.507Z,15.91
2022-12-26T13:20:03.069Z,15.83
2022-12-26T13:22:58.085Z,15.62
2022-12-26T13:25:27.330Z,15.36
2022-12-26T13:28:09.292Z,15.17
2022-12-26T13:30:39.888Z,14.90
2022-12-26T13:33:06.798Z,14.56
2022-12-26T13:35:57.798Z,14.43
2022-12-26T13:38:26.527Z,14.32
2022-12-26T13:41:22.847Z,14.21
2022-12-26T13:44:27.389Z,14.06
2022-12-26T13:46:57.940Z,13.94
2022-12-26T13:49:41.636Z,13.81
2022-12-26T13:52:10.951Z,13.70
2022-12-26T13:55:06.791Z,13.57
2022-12-26T13:57:41.900Z,13.41
2022-12-26T14:00:41.179Z,13.34
2022-12-26T14:03:21.850Z,13.25
2022-12-26T14:06:04.659Z,13.09
2022-12-26T14:08:54.818Z,12.96
2022-12-26T14:11:44.533Z,12.72
2022-12-26T14:14:26.296Z,12.62
2022-12-26T14:17:05.825Z,12.46
2022-12-26T14:19:47.604Z,12.39
2022-12-26T14:22:25.370Z,12.27
2022-12-26T14:25:35.633Z,12.14
2022-12-26T14:28:24.040Z,11.97
2022-12-26T14:31:25.376Z,11.75
2022-12-26T14:34:01.227Z,11.40
2022-12-26T14:36:49.188Z,11.26
2022-12-26T14:39:34.009Z,10.94
2022-12-26T14:42:25.550Z,10.76
2022-12-26T14:44:56.737Z,10.51
2022-12-26T14:47:46.229Z,10.35
2022-12-26T14:50:34.490Z,10.25
2022-12-26T14:53:28.714Z,10.13
2022-12-26T14:56:10.196Z,9.91
2022-12-26T14:58:52.684Z,9.72
2022-12-26T15:01:22.352Z,9.59
2022-12-26T15:04:16.988Z,9.40
2022-12-26T15:07:41.965Z,9.28
2022-12-26T15:10:29.891Z,9.18
2022-12-26T15:13:13.184Z,9.08
2022-12-26T15:16:09.872Z,8.98
2022-12-26T15:19:18.300Z,8.79
2022-12-26T15:22:09.804Z,8.68
2022-12-26T15:25:19.159Z,8.54
2022-12-26T15:27:59.375Z,8.41
2022-12-26T15:30:43.967Z,8.35
2022-12-26T15:33:18.565Z,8.18
2022-12-26T15:35:59.567Z,8.10
2022-12-26T15:38:51.152Z,7.90
2022-12-26T15:41:32.022Z,7.83
2022-12-26T15:44:21.949Z,7.65
2022-12-26T15:47:04.890Z,7.60
2022-12-26T15:49:50.015Z,7.46
2022-12-26T15:52:31.441Z,7.47
2022-12-26T15:55:09.657Z,7.44
2022-12-26T15:58:23.747Z,7.41
2022-12-26T16:00:53.181Z,7.37
2022-12-26T16:03:19.737Z,7.28
2022-12-26T16:06:24.175Z,7.10
2022-12-26T16:09:21.707Z,6.95
2022-12-26T16:11:52.311Z,6.82
2022-12-26T16:14:32.835Z,6.64
2022-12-26T16:17:14.278Z,6.44
2022-12-26T16:19:43.318Z,6.44
2022-12-26T16:22:44.478Z,6.35
2022-12-26T16:25:22.952Z,6.27
2022-12-26T16:27:52.657Z,6.15
2022-12-26T16:30:23.544Z,6.14
2022-12-26T16:32:51.043Z,6.11
2022-12-26T16:35:19.619Z,5.99
2022-12-26T16:37:47.125Z,5.89
2022-12-26T16:40:18.246Z,5.91
2022-12-26T16:42:55.536Z,5.83
2022-12-26T16:45:23.792Z,5.69
2022-12-26T16:47:50.554Z,5.58
2022-12-26T16:50:23.431Z,5.48
2022-12-26T16:53:00.580Z,5.42
2022-12-26T16:55:37.489Z,5.33
2022-12-26T16:58:21.861Z,5.29
2022-12-26T17:01:10.838Z,5.29
2022-12-26T17:03:39.816Z,5.28
2022-12-26T17:06:14.818Z,5.23
2022-12-26T17:08:48.957Z,5.23
2022-12-26T17:11:16.905Z,5.22
2022-12-26T17:13:54.322Z,5.08
2022-12-26T17:16:24.972Z,5.03
2022-12-26T17:18:54.712Z,5.03
2022-12-26T17:21:23.174Z,4.99
2022-12-26T17:24:05.598Z,4.87
2022-12-26T17:26:32.533Z,4.81
2022-12-26T17:28:59.413Z,4.75
2022-12-26T17:31:35.876Z,4.72
2022-12-26T17:34:13.415Z,4.68
2022-12-26T17:39:27.500Z,4.47
2022-12-26T17:42:00.221Z,4.49
2022-12-26T17:44:52.994Z,4.46
2022-12-26T17:47:21.419Z,4.37
2022-12-26T17:49:49.620Z,4.22
2022-12-26T17:52:20.518Z,4.17
2022-12-26T17:54:49.578Z,4.12
2022-12-26T17:57:35.730Z,4.04
2022-12-26T18:00:02.462Z,3.96
2022-12-26T18:02:29.088Z,3.88
2022-12-26T18:04:55.985Z,3.84
2022-12-26T18:07:31.309Z,3.85
2022-12-26T18:09:58.812Z,3.80
2022-12-26T18:12:25.491Z,3.79
2022-12-26T18:14:57.541Z,3.77
2022-12-26T18:17:28.936Z,3.62
2022-12-26T18:19:57.255Z,3.59
2022-12-26T18:22:23.802Z,3.51
2022-12-26T18:24:50.355Z,3.40
2022-12-26T18:27:19.307Z,3.27
2022-12-26T18:29:46.056Z,3.24
2022-12-26T18:32:33.696Z,3.23
2022-12-26T18:35:00.818Z,3.22
2022-12-26T18:37:29.810Z,3.17
2022-12-26T18:39:57.022Z,3.15
2022-12-26T18:42:23.955Z,3.13
2022-12-26T18:44:50.623Z,3.07
2022-12-26T18:47:19.280Z,3.02
2022-12-26T18:49:46.679Z,3.00
2022-12-26T18:52:17.843Z,2.95
2022-12-26T18:54:44.715Z,2.90
2022-12-26T18:57:17.741Z,2.90
2022-12-26T18:59:44.560Z,2.88
2022-12-26T19:02:17.547Z,2.82
2022-12-26T19:04:44.344Z,2.80
2022-12-26T19:07:11.296Z,2.75
2022-12-26T19:09:37.846Z,2.73
2022-12-26T19:12:04.678Z,2.73
2022-12-26T19:14:31.321Z,2.72
2022-12-26T19:16:57.973Z,2.71
2022-12-26T19:19:26.657Z,2.68
2022-12-26T19:21:53.230Z,2.58
2022-12-26T19:24:19.829Z,2.57
2022-12-26T19:26:46.389Z,2.50
2022-12-26T19:29:13.274Z,2.48
2022-12-26T19:31:40.034Z,2.43
2022-12-26T19:34:06.693Z,2.40
2022-12-26T19:36:33.361Z,2.33
2022-12-26T19:39:00.154Z,2.27
2022-12-26T19:41:26.752Z,2.24
2022-12-26T19:43:59.894Z,2.25
2022-12-26T19:46:27.396Z,2.22
2022-12-26T19:48:54.724Z,2.20
2022-12-26T19:51:22.303Z,2.22
2022-12-26T19:53:49.412Z,2.28
2022-12-26T19:56:22.186Z,2.36
2022-12-26T19:58:54.664Z,2.42
2022-12-26T20:01:28.977Z,2.51
2022-12-26T20:04:04.078Z,2.61
2022-12-26T20:06:32.511Z,2.72
2022-12-26T20:09:01.774Z,2.80
2022-12-26T20:11:31.408Z,2.89
2022-12-26T20:13:59.519Z,2.97
2022-12-26T20:17:03.750Z,2.99
2022-12-26T20:19:14.076Z,3.02
2022-12-26T20:21:40.724Z,2.96
2022-12-26T20:24:07.530Z,2.90
2022-12-26T20:26:34.147Z,2.85
2022-12-26T20:29:01.875Z,2.82
2022-12-26T20:31:30.575Z,2.86
2022-12-26T20:33:57.844Z,2.92
2022-12-26T20:36:27.511Z,2.97
2022-12-26T20:38:56.607Z,3.05
2022-12-26T20:41:23.999Z,3.13
2022-12-26T20:43:51.121Z,3.19
2022-12-26T20:46:20.790Z,3.22
2022-12-26T20:48:49.602Z,3.26
2022-12-26T20:51:23.212Z,3.26
2022-12-26T20:53:51.301Z,3.27
2022-12-26T20:56:18.338Z,3.27
2022-12-26T20:58:45.364Z,3.28
2022-12-26T21:01:17.152Z,3.33
2022-12-26T21:03:43.950Z,3.35
2022-12-26T21:06:13.476Z,3.36
2022-12-26T21:08:41.766Z,3.36
2022-12-26T21:11:17.120Z,3.38
2022-12-26T21:13:45.654Z,3.41
2022-12-26T21:16:20.342Z,3.42
2022-12-26T21:18:47.005Z,3.43
2022-12-26T21:21:17.241Z,3.48
2022-12-26T21:23:44.559Z,3.53
2022-12-26T21:26:12.052Z,3.55
2022-12-26T21:28:39.072Z,3.59
2022-12-26T21:31:10.054Z,3.58
2022-12-26T21:33:44.065Z,3.59
2022-12-26T21:36:13.107Z,3.58
2022-12-26T21:38:40.193Z,3.59
2022-12-26T21:41:11.479Z,3.58
2022-12-26T21:43:38.384Z,3.57
2022-12-26T21:46:08.731Z,3.56
2022-12-26T21:48:36.344Z,3.58
2022-12-26T21:51:07.309Z,3.63
2022-12-26T21:53:34.076Z,3.65
2022-12-26T21:56:05.825Z,3.69
2022-12-26T21:58:52.347Z,3.72
2022-12-26T22:01:21.579Z,3.76
2022-12-26T22:04:06.997Z,3.79
2022-12-26T22:06:34.141Z,3.79
2022-12-26T22:09:01.732Z,3.82
2022-12-26T22:11:46.667Z,3.81
2022-12-26T22:14:13.412Z,3.82
2022-12-26T22:16:40.548Z,3.86
2022-12-26T22:19:07.799Z,3.86
2022-12-26T22:21:34.530Z,3.88
2022-12-26T22:24:01.153Z,3.92
2022-12-26T22:26:29.325Z,3.94
2022-12-26T22:28:57.425Z,3.95
2022-12-26T22:31:31.675Z,3.97
2022-12-26T22:34:01.355Z,4.00
2022-12-26T22:36:29.583Z,4.01
2022-12-26T22:38:57.573Z,4.06
2022-12-26T22:41:24.374Z,4.09
2022-12-26T22:43:50.930Z,4.07
2022-12-26T22:46:18.092Z,4.07
2022-12-26T22:48:44.867Z,4.07
2022-12-26T22:51:20.806Z,4.08
2022-12-26T22:53:48.152Z,4.05
2022-12-26T22:56:15.221Z,4.05
2022-12-26T22:58:42.091Z,4.06
2022-12-26T23:01:17.167Z,4.09
2022-12-26T23:03:44.037Z,4.09
2022-12-26T23:06:24.822Z,4.12
2022-12-26T23:08:54.344Z,4.14
2022-12-26T23:11:22.242Z,4.16
2022-12-26T23:13:49.750Z,4.18
2022-12-26T23:16:24.607Z,4.20
2022-12-26T23:19:52.980Z,4.16
2022-12-26T23:22:19.787Z,4.14
2022-12-26T23:24:46.342Z,4.17
2022-12-26T23:27:31.521Z,4.18
2022-12-26T23:30:16.397Z,4.20
2022-12-26T23:32:44.511Z,4.24
2022-12-26T23:35:12.364Z,4.27
2022-12-26T23:37:40.718Z,4.30
2022-12-26T23:40:09.699Z,4.31
2022-12-26T23:42:37.276Z,4.34
2022-12-26T23:45:04.823Z,4.38
2022-12-26T23:47:31.803Z,4.39
2022-12-26T23:49:58.442Z,4.40
2022-12-26T23:52:30.025Z,4.44
2022-12-26T23:54:57.336Z,4.48
2022-12-26T23:57:24.104Z,4.50
2022-12-26T23:59:50.675Z,4.51
